createdAt,value
2019-03-19T00:02:28.563Z,97.55
2019-03-19T00:04:57.009Z,96.91
2019-03-19T00:07:25.413Z,96.82
2019-03-19T00:09:53.880Z,96.69
2019-03-19T00:12:22.270Z,96.20
2019-03-19T00:14:50.679Z,96.07
2019-03-19T00:17:19.275Z,96.19
2019-03-19T00:19:47.609Z,95.76
2019-03-19T00:22:16.045Z,95.91
2019-03-19T00:24:44.427Z,95.62
2019-03-19T00:27:12.966Z,95.15
2019-03-19T00:29:41.365Z,95.32
2019-03-19T00:32:09.852Z,95.38
2019-03-19T00:34:38.244Z,95.37
2019-03-19T00:37:06.718Z,95.43
2019-03-19T00:39:35.129Z,95.53
2019-03-19T00:42:03.583Z,95.52
2019-03-19T00:44:32.079Z,95.55
2019-03-19T00:47:00.457Z,95.42
2019-03-19T00:49:28.911Z,96.14
2019-03-19T00:51:57.300Z,96.42
2019-03-19T00:54:25.697Z,96.33
2019-03-19T00:56:54.181Z,96.58
2019-03-19T00:59:22.578Z,96.37
2019-03-19T01:01:50.969Z,97.00
2019-03-19T01:04:19.366Z,96.71
2019-03-19T01:06:47.830Z,96.45
2019-03-19T01:09:16.225Z,96.54
2019-03-19T01:11:44.627Z,96.56
2019-03-19T01:14:13.204Z,96.46
2019-03-19T01:16:41.610Z,97.12
2019-03-19T01:19:10.080Z,96.50
2019-03-19T01:21:38.479Z,96.12
2019-03-19T01:24:07.085Z,95.09
2019-03-19T01:26:35.479Z,96.03
2019-03-19T01:29:03.906Z,96.63
2019-03-19T01:31:32.294Z,96.57
2019-03-19T01:34:00.709Z,95.41
2019-03-19T01:36:29.111Z,96.14
2019-03-19T01:38:57.695Z,96.33
2019-03-19T01:41:26.098Z,96.73
2019-03-19T01:43:54.511Z,96.73
2019-03-19T01:46:22.918Z,96.60
2019-03-19T01:48:51.339Z,96.93
2019-03-19T01:51:19.729Z,96.99
2019-03-19T01:53:48.118Z,96.29
2019-03-19T01:56:16.584Z,96.33
2019-03-19T01:58:45.144Z,96.67
2019-03-19T02:01:13.543Z,96.75
2019-03-19T02:03:42.007Z,96.67
2019-03-19T02:06:10.459Z,96.93
2019-03-19T02:08:38.852Z,96.65
2019-03-19T02:11:07.350Z,96.01
2019-03-19T02:13:35.984Z,95.11
2019-03-19T02:16:04.467Z,95.49
2019-03-19T02:18:32.842Z,95.49
2019-03-19T02:21:01.281Z,95.52
2019-03-19T02:23:29.673Z,95.57
2019-03-19T02:25:58.070Z,95.63
2019-03-19T02:28:26.474Z,95.49
2019-03-19T02:30:54.865Z,95.36
2019-03-19T02:33:23.251Z,95.15
2019-03-19T02:35:51.868Z,95.45
2019-03-19T02:38:20.260Z,96.11
2019-03-19T02:40:48.705Z,95.79
2019-03-19T02:43:17.157Z,95.52
2019-03-19T02:45:45.555Z,96.03
2019-03-19T02:48:13.968Z,97.02
2019-03-19T02:50:42.374Z,97.30
2019-03-19T02:53:10.924Z,96.17
2019-03-19T02:55:39.605Z,95.89
2019-03-19T02:58:08.103Z,95.40
2019-03-19T03:00:36.536Z,94.52
2019-03-19T03:03:05.012Z,95.15
2019-03-19T03:05:33.639Z,95.88
2019-03-19T03:08:02.085Z,95.86
2019-03-19T03:10:30.546Z,96.78
2019-03-19T03:12:58.962Z,97.46
2019-03-19T03:15:27.342Z,97.36
2019-03-19T03:17:55.804Z,96.44
2019-03-19T03:20:24.269Z,95.98
2019-03-19T03:22:52.672Z,96.18
2019-03-19T03:25:21.330Z,96.07
2019-03-19T03:27:49.742Z,96.43
2019-03-19T03:30:22.690Z,96.72
2019-03-19T03:32:51.422Z,97.21
2019-03-19T03:35:19.777Z,98.26
2019-03-19T03:37:48.318Z,98.52
2019-03-19T03:40:20.625Z,98.61
2019-03-19T03:42:49.022Z,98.01
2019-03-19T03:45:18.457Z,97.05
2019-03-19T03:47:46.988Z,95.85
2019-03-19T03:50:17.173Z,95.87
2019-03-19T03:52:45.784Z,95.98
2019-03-19T03:55:15.191Z,97.40
2019-03-19T03:57:43.770Z,98.35
2019-03-19T04:00:18.217Z,98.57
2019-03-19T04:02:46.636Z,98.27
2019-03-19T04:05:15.707Z,97.32
2019-03-19T04:07:44.396Z,97.15
2019-03-19T04:10:14.395Z,96.09
2019-03-19T04:12:42.780Z,96.19
2019-03-19T04:15:15.279Z,96.64
2019-03-19T04:17:43.742Z,96.88
2019-03-19T04:20:13.371Z,96.89
2019-03-19T04:22:41.850Z,95.47
2019-03-19T04:28:34.810Z,95.86
2019-03-19T04:31:03.483Z,95.80
2019-03-19T04:33:31.864Z,96.23
2019-03-19T04:36:00.285Z,96.58
2019-03-19T04:38:48.033Z,96.55
2019-03-19T04:41:16.449Z,96.27
2019-03-19T04:43:44.918Z,95.33
2019-03-19T04:46:13.344Z,95.43
2019-03-19T04:48:41.786Z,95.56
2019-03-19T04:51:10.276Z,95.67
2019-03-19T04:53:38.733Z,95.83
2019-03-19T04:56:07.426Z,95.56
2019-03-19T04:58:35.826Z,95.49
2019-03-19T05:01:04.309Z,97.01
2019-03-19T05:03:32.822Z,97.10
2019-03-19T05:06:01.356Z,96.39
2019-03-19T05:08:29.993Z,96.23
2019-03-19T05:10:58.397Z,96.88
2019-03-19T05:13:27.159Z,100.00
2019-03-19T05:15:55.556Z,98.07
2019-03-19T05:18:24.000Z,98.54
2019-03-19T05:20:52.404Z,100.00
2019-03-19T05:23:20.898Z,100.00
2019-03-19T05:25:49.411Z,100.00
2019-03-19T05:28:17.965Z,100.00
2019-03-19T05:30:46.546Z,100.00
2019-03-19T05:33:15.059Z,100.00
2019-03-19T05:35:43.479Z,100.00
2019-03-19T05:38:11.896Z,100.00
2019-03-19T05:40:40.307Z,100.00
2019-03-19T05:43:08.969Z,100.00
2019-03-19T05:45:37.389Z,100.00
2019-03-19T05:48:05.911Z,100.00
2019-03-19T05:50:34.316Z,100.00
2019-03-19T05:53:02.752Z,100.00
2019-03-19T05:55:31.158Z,100.00
2019-03-19T05:57:59.582Z,97.88
2019-03-19T06:00:29.734Z,96.63
2019-03-19T06:02:58.145Z,96.74
2019-03-19T06:05:26.563Z,96.32
2019-03-19T06:07:54.991Z,95.18
2019-03-19T06:10:25.893Z,96.60
2019-03-19T06:12:53.613Z,96.77
2019-03-19T06:15:22.077Z,96.94
2019-03-19T06:17:50.486Z,97.68
2019-03-19T06:20:19.826Z,97.77
2019-03-19T06:22:48.353Z,97.67
2019-03-19T06:25:16.916Z,97.85
2019-03-19T06:27:45.295Z,98.97
2019-03-19T06:30:24.017Z,97.84
2019-03-19T06:32:52.547Z,96.54
2019-03-19T06:35:21.199Z,95.80
2019-03-19T06:37:49.636Z,96.28
2019-03-19T06:40:21.779Z,96.11
2019-03-19T06:42:50.345Z,93.64
2019-03-19T06:45:22.618Z,92.84
2019-03-19T06:47:49.958Z,92.06
2019-03-19T06:50:19.417Z,90.83
2019-03-19T06:52:47.900Z,90.72
2019-03-19T06:55:17.291Z,89.95
2019-03-19T06:57:45.763Z,88.25
2019-03-19T07:00:19.055Z,86.32
2019-03-19T07:02:47.709Z,86.74
2019-03-19T07:05:17.459Z,87.38
2019-03-19T07:07:46.024Z,85.89
2019-03-19T07:10:16.627Z,84.49
2019-03-19T07:12:45.034Z,83.45
2019-03-19T07:15:18.690Z,81.92
2019-03-19T07:17:47.296Z,81.54
2019-03-19T07:20:18.092Z,81.17
2019-03-19T07:22:46.503Z,79.52
2019-03-19T07:25:16.519Z,78.84
2019-03-19T07:27:45.093Z,80.01
2019-03-19T07:30:27.490Z,79.33
2019-03-19T07:32:56.061Z,79.35
2019-03-19T07:35:24.560Z,79.82
2019-03-19T07:37:52.963Z,79.06
2019-03-19T07:40:21.440Z,76.91
2019-03-19T07:42:50.068Z,72.95
2019-03-19T07:45:25.970Z,68.77
2019-03-19T07:47:54.445Z,64.20
2019-03-19T07:50:23.898Z,58.67
2019-03-19T07:52:53.100Z,52.54
2019-03-19T07:55:21.589Z,52.55
2019-03-19T07:57:49.987Z,55.01
2019-03-19T08:00:22.212Z,52.01
2019-03-19T08:02:50.689Z,49.43
2019-03-19T08:05:19.151Z,48.08
2019-03-19T08:07:47.582Z,44.00
2019-03-19T08:10:17.045Z,39.98
2019-03-19T08:12:45.540Z,37.92
2019-03-19T08:15:17.035Z,38.63
2019-03-19T08:17:45.493Z,38.66
2019-03-19T08:20:15.188Z,37.63
2019-03-19T08:22:44.003Z,39.49
2019-03-19T08:25:13.511Z,40.48
2019-03-19T08:27:42.146Z,42.14
2019-03-19T08:30:24.099Z,41.03
2019-03-19T08:32:51.836Z,42.75
2019-03-19T08:35:20.342Z,41.19
2019-03-19T08:37:48.880Z,42.93
2019-03-19T08:40:19.123Z,40.22
2019-03-19T08:42:47.921Z,37.33
2019-03-19T08:45:20.492Z,32.32
2019-03-19T08:47:48.947Z,30.47
2019-03-19T08:50:18.811Z,32.08
2019-03-19T08:52:47.211Z,30.64
2019-03-19T08:55:15.708Z,30.41
2019-03-19T08:57:44.106Z,30.50
2019-03-19T09:00:18.675Z,30.91
2019-03-19T09:02:47.092Z,27.75
2019-03-19T09:05:15.790Z,26.03
2019-03-19T09:07:45.989Z,24.10
2019-03-19T09:10:20.747Z,23.26
2019-03-19T09:12:49.401Z,25.69
2019-03-19T09:15:30.982Z,24.58
2019-03-19T09:17:59.394Z,22.46
2019-03-19T09:20:27.892Z,21.53
2019-03-19T09:22:56.378Z,21.92
2019-03-19T09:25:24.782Z,19.97
2019-03-19T09:27:53.216Z,20.64
2019-03-19T09:30:25.476Z,22.73
2019-03-19T09:32:53.875Z,23.05
2019-03-19T09:35:22.531Z,21.21
2019-03-19T09:37:58.326Z,21.77
2019-03-19T09:40:22.190Z,21.47
2019-03-19T09:42:50.766Z,23.48
2019-03-19T09:45:19.355Z,27.32
2019-03-19T09:47:47.871Z,29.89
2019-03-19T09:50:20.102Z,28.30
2019-03-19T09:52:48.617Z,26.35
2019-03-19T09:55:17.194Z,23.70
2019-03-19T09:57:45.616Z,23.70
2019-03-19T10:00:17.091Z,25.37
2019-03-19T10:02:45.660Z,26.17
2019-03-19T10:05:14.224Z,25.25
2019-03-19T10:07:42.708Z,25.53
2019-03-19T10:10:13.670Z,25.91
2019-03-19T10:12:42.196Z,26.92
2019-03-19T10:15:11.130Z,27.23
2019-03-19T10:17:39.553Z,28.39
2019-03-19T10:20:13.681Z,28.66
2019-03-19T10:22:42.401Z,24.88
2019-03-19T10:25:12.750Z,22.03
2019-03-19T10:27:41.339Z,21.18
2019-03-19T10:30:17.758Z,20.42
2019-03-19T10:32:46.541Z,17.33
2019-03-19T10:35:15.079Z,16.58
2019-03-19T10:37:43.665Z,15.92
2019-03-19T10:40:14.535Z,16.61
2019-03-19T10:42:43.103Z,16.53
2019-03-19T10:45:18.465Z,16.05
2019-03-19T10:47:47.057Z,16.46
2019-03-19T10:50:20.902Z,15.87
2019-03-19T10:52:49.385Z,17.13
2019-03-19T10:55:18.283Z,15.52
2019-03-19T10:57:46.719Z,15.15
2019-03-19T11:00:25.200Z,15.82
2019-03-19T11:02:54.046Z,14.46
2019-03-19T11:05:23.192Z,15.22
2019-03-19T11:07:52.038Z,15.13
2019-03-19T11:10:20.894Z,14.69
2019-03-19T11:12:49.377Z,14.87
2019-03-19T11:15:23.531Z,16.05
2019-03-19T11:17:52.075Z,17.49
2019-03-19T11:20:21.043Z,20.35
2019-03-19T11:22:49.534Z,20.33
2019-03-19T11:25:22.642Z,19.33
2019-03-19T11:27:51.117Z,18.51
2019-03-19T11:30:25.453Z,16.51
2019-03-19T11:32:53.863Z,16.40
2019-03-19T11:35:22.536Z,16.13
2019-03-19T11:37:51.060Z,16.19
2019-03-19T11:40:20.483Z,19.41
2019-03-19T11:42:49.151Z,21.65
2019-03-19T11:45:22.527Z,23.30
2019-03-19T11:47:51.058Z,25.30
2019-03-19T11:50:21.320Z,26.63
2019-03-19T11:52:49.993Z,25.68
2019-03-19T11:55:18.908Z,26.03
2019-03-19T11:57:47.302Z,26.02
2019-03-19T12:00:23.153Z,27.09
2019-03-19T12:02:51.621Z,27.96
2019-03-19T12:05:20.191Z,29.06
2019-03-19T12:07:48.595Z,29.91
2019-03-19T12:10:17.149Z,30.91
2019-03-19T12:12:45.570Z,30.20
2019-03-19T12:15:14.023Z,29.25
2019-03-19T12:17:42.543Z,29.55
2019-03-19T12:20:13.140Z,29.58
2019-03-19T12:22:41.607Z,27.80
2019-03-19T12:25:11.254Z,27.59
2019-03-19T12:27:39.964Z,24.47
2019-03-19T12:30:26.324Z,20.32
2019-03-19T12:32:54.587Z,18.07
2019-03-19T12:35:23.472Z,16.62
2019-03-19T12:37:51.974Z,15.49
2019-03-19T12:40:21.646Z,15.13
2019-03-19T12:42:50.155Z,14.61
2019-03-19T12:45:19.793Z,17.18
2019-03-19T12:47:48.421Z,18.02
2019-03-19T12:50:20.916Z,18.44
2019-03-19T12:52:49.417Z,19.54
2019-03-19T12:55:17.943Z,20.37
2019-03-19T12:57:46.453Z,20.05
2019-03-19T13:01:12.789Z,19.14
2019-03-19T13:02:58.399Z,18.69
2019-03-19T13:05:26.866Z,20.45
2019-03-19T13:07:55.371Z,19.26
2019-03-19T13:10:24.506Z,18.97
2019-03-19T13:12:52.987Z,18.63
2019-03-19T13:15:21.899Z,18.37
2019-03-19T13:17:50.426Z,16.85
2019-03-19T13:20:19.909Z,16.74
2019-03-19T13:22:48.376Z,16.25
2019-03-19T13:25:19.869Z,16.92
2019-03-19T13:27:48.279Z,16.72
2019-03-19T13:30:21.380Z,16.22
2019-03-19T13:32:49.897Z,16.53
2019-03-19T13:35:18.312Z,17.47
2019-03-19T13:37:47.026Z,17.22
2019-03-19T13:40:19.721Z,16.85
2019-03-19T13:42:48.361Z,16.85
2019-03-19T13:45:23.548Z,15.99
2019-03-19T13:47:52.066Z,15.45
2019-03-19T13:50:21.102Z,14.84
2019-03-19T13:52:49.773Z,15.40
2019-03-19T13:55:21.695Z,15.04
2019-03-19T13:57:50.366Z,14.94
2019-03-19T14:00:19.609Z,14.64
2019-03-19T14:02:48.101Z,14.74
2019-03-19T14:05:17.333Z,14.95
2019-03-19T14:07:45.903Z,15.81
2019-03-19T14:10:18.022Z,16.35
2019-03-19T14:12:46.860Z,17.77
2019-03-19T14:15:17.894Z,17.58
2019-03-19T14:17:46.326Z,18.12
2019-03-19T14:20:16.177Z,17.24
2019-03-19T14:22:45.470Z,16.63
2019-03-19T14:25:16.192Z,17.08
2019-03-19T14:27:45.105Z,19.76
2019-03-19T14:30:15.561Z,21.92
2019-03-19T14:32:44.072Z,21.48
2019-03-19T14:35:12.942Z,20.36
2019-03-19T14:37:41.376Z,20.20
2019-03-19T14:40:15.205Z,20.54
2019-03-19T14:42:43.813Z,19.27
2019-03-19T14:45:13.024Z,20.00
2019-03-19T14:47:41.497Z,20.89
2019-03-19T14:50:15.921Z,20.41
2019-03-19T14:52:44.359Z,19.46
2019-03-19T14:55:13.438Z,20.80
2019-03-19T14:57:41.951Z,21.52
2019-03-19T15:00:18.199Z,22.00
2019-03-19T15:02:46.626Z,24.17
2019-03-19T15:05:15.700Z,26.90
2019-03-19T15:07:44.545Z,27.26
2019-03-19T15:10:17.801Z,25.60
2019-03-19T15:12:46.216Z,24.57
2019-03-19T15:15:19.313Z,24.24
2019-03-19T15:17:47.712Z,25.55
2019-03-19T15:20:23.751Z,25.91
2019-03-19T15:22:52.190Z,25.81
2019-03-19T15:25:20.671Z,25.55
2019-03-19T15:27:49.109Z,27.50
2019-03-19T15:30:21.653Z,28.01
2019-03-19T15:32:50.066Z,27.32
2019-03-19T15:35:18.626Z,27.36
2019-03-19T15:37:47.114Z,27.14
2019-03-19T15:40:16.525Z,28.08
2019-03-19T15:42:45.155Z,28.42
2019-03-19T15:45:16.081Z,28.90
2019-03-19T15:47:44.549Z,29.51
2019-03-19T15:50:14.844Z,30.58
2019-03-19T15:52:43.336Z,31.01
2019-03-19T15:55:13.740Z,30.84
2019-03-19T15:57:42.309Z,31.22
2019-03-19T16:00:17.830Z,32.02
2019-03-19T16:02:46.515Z,32.57
2019-03-19T16:05:15.493Z,33.18
2019-03-19T16:07:44.496Z,33.82
2019-03-19T16:10:17.989Z,34.00
2019-03-19T16:12:46.458Z,34.07
2019-03-19T16:15:23.075Z,38.69
2019-03-19T16:17:51.634Z,33.88
2019-03-19T16:20:20.984Z,34.40
2019-03-19T16:22:49.472Z,36.23
2019-03-19T16:25:18.120Z,37.91
2019-03-19T16:27:46.527Z,34.41
2019-03-19T16:30:15.902Z,35.82
2019-03-19T16:32:44.552Z,32.59
2019-03-19T16:35:13.903Z,32.98
2019-03-19T16:37:42.403Z,32.82
2019-03-19T16:40:16.393Z,34.01
2019-03-19T16:42:44.809Z,33.02
2019-03-19T16:45:13.489Z,33.87
2019-03-19T16:47:41.985Z,33.24
2019-03-19T16:50:13.520Z,34.32
2019-03-19T16:52:41.933Z,33.39
2019-03-19T16:55:13.095Z,34.86
2019-03-19T16:57:41.591Z,37.95
2019-03-19T17:00:12.897Z,34.43
2019-03-19T17:02:41.414Z,35.64
2019-03-19T17:05:10.763Z,35.32
2019-03-19T17:07:39.207Z,35.83
2019-03-19T17:10:10.666Z,36.78
2019-03-19T17:12:39.175Z,37.08
2019-03-19T17:15:10.398Z,37.61
2019-03-19T17:17:38.839Z,37.20
2019-03-19T17:20:10.770Z,35.77
2019-03-19T17:22:39.303Z,36.35
2019-03-19T17:25:10.708Z,36.72
2019-03-19T17:27:39.201Z,37.19
2019-03-19T17:30:25.783Z,38.00
2019-03-19T17:32:54.446Z,37.80
2019-03-19T17:35:22.967Z,37.33
2019-03-19T17:37:51.571Z,38.72
2019-03-19T17:40:20.147Z,39.38
2019-03-19T17:42:48.708Z,39.97
2019-03-19T17:45:17.415Z,39.91
2019-03-19T17:47:46.206Z,40.01
2019-03-19T17:50:21.774Z,40.51
2019-03-19T17:52:52.040Z,43.20
2019-03-19T17:55:20.506Z,43.20
2019-03-19T17:57:48.980Z,45.60
2019-03-19T18:00:20.524Z,46.50
2019-03-19T18:02:49.082Z,47.69
2019-03-19T18:05:17.640Z,49.07
2019-03-19T18:07:46.762Z,50.59
2019-03-19T18:10:15.547Z,51.19
2019-03-19T18:12:44.005Z,52.32
2019-03-19T18:15:14.017Z,51.82
2019-03-19T18:17:42.675Z,51.82
2019-03-19T18:20:17.097Z,51.93
2019-03-19T18:22:45.598Z,52.94
2019-03-19T18:25:19.648Z,54.46
2019-03-19T18:27:48.147Z,54.93
2019-03-19T18:30:21.214Z,55.86
2019-03-19T18:32:49.697Z,56.28
2019-03-19T18:35:18.112Z,56.28
2019-03-19T18:37:46.663Z,56.35
2019-03-19T18:40:19.712Z,57.22
2019-03-19T18:42:48.417Z,57.65
2019-03-19T18:45:20.658Z,58.84
2019-03-19T18:47:49.235Z,58.74
2019-03-19T18:50:24.297Z,58.48
2019-03-19T18:52:52.738Z,59.07
2019-03-19T18:55:21.278Z,59.70
2019-03-19T18:57:49.777Z,59.71
2019-03-19T19:00:19.352Z,59.25
2019-03-19T19:02:50.849Z,59.14
2019-03-19T19:05:23.090Z,59.48
2019-03-19T19:07:51.635Z,60.05
2019-03-19T19:10:21.367Z,60.49
2019-03-19T19:12:50.141Z,59.96
2019-03-19T19:15:23.089Z,59.93
2019-03-19T19:17:51.564Z,60.11
2019-03-19T19:20:20.306Z,60.36
2019-03-19T19:22:48.785Z,60.82
2019-03-19T19:25:24.818Z,61.10
2019-03-19T19:27:53.240Z,61.46
2019-03-19T19:30:29.360Z,62.56
2019-03-19T19:33:02.153Z,62.65
2019-03-19T19:35:27.995Z,62.89
2019-03-19T19:37:56.423Z,63.00
2019-03-19T19:40:24.922Z,62.90
2019-03-19T19:42:53.404Z,63.15
2019-03-19T19:45:21.822Z,63.16
2019-03-19T19:47:50.294Z,63.78
2019-03-19T19:50:20.874Z,64.48
2019-03-19T19:52:49.457Z,64.98
2019-03-19T19:55:17.998Z,65.47
2019-03-19T19:57:46.707Z,65.92
2019-03-19T20:00:19.627Z,66.63
2019-03-19T20:02:48.253Z,67.17
2019-03-19T20:05:16.948Z,67.62
2019-03-19T20:07:45.492Z,67.91
2019-03-19T20:10:21.564Z,68.18
2019-03-19T20:12:50.201Z,67.96
2019-03-19T20:15:18.891Z,68.14
2019-03-19T20:17:47.388Z,68.19
2019-03-19T20:20:26.987Z,68.99
2019-03-19T20:22:55.418Z,69.28
2019-03-19T20:25:23.846Z,69.67
2019-03-19T20:27:52.336Z,70.09
2019-03-19T20:30:22.911Z,70.32
2019-03-19T20:32:51.342Z,70.68
2019-03-19T20:35:19.793Z,71.07
2019-03-19T20:37:48.260Z,71.12
2019-03-19T20:40:17.216Z,71.26
2019-03-19T20:42:45.784Z,71.72
2019-03-19T20:45:16.620Z,71.91
2019-03-19T20:47:45.088Z,72.29
2019-03-19T20:50:16.343Z,72.61
2019-03-19T20:52:45.139Z,73.37
2019-03-19T20:55:13.777Z,72.97
2019-03-19T20:57:42.195Z,72.97
2019-03-19T21:03:41.087Z,73.39
2019-03-19T21:06:09.770Z,73.54
2019-03-19T21:08:38.273Z,73.49
2019-03-19T21:11:06.753Z,73.57
2019-03-19T21:13:35.176Z,73.60
2019-03-19T21:16:03.643Z,73.39
2019-03-19T21:18:32.025Z,73.58
2019-03-19T21:21:00.578Z,73.60
2019-03-19T21:23:29.031Z,74.82
2019-03-19T21:25:57.515Z,75.22
2019-03-19T21:28:26.076Z,75.03
2019-03-19T21:30:54.502Z,74.98
2019-03-19T21:33:23.001Z,74.74
2019-03-19T21:35:51.487Z,74.97
2019-03-19T21:38:19.928Z,76.34
2019-03-19T21:40:48.349Z,76.53
2019-03-19T21:43:17.120Z,76.11
2019-03-19T21:45:45.525Z,75.25
2019-03-19T21:48:14.062Z,75.17
2019-03-19T21:50:42.584Z,75.97
2019-03-19T21:53:10.953Z,76.44
2019-03-19T21:55:39.385Z,76.22
2019-03-19T21:58:07.779Z,76.97
2019-03-19T22:00:36.254Z,76.95
2019-03-19T22:03:04.797Z,76.55
2019-03-19T22:05:33.381Z,76.57
2019-03-19T22:08:01.886Z,76.63
2019-03-19T22:10:30.288Z,76.16
2019-03-19T22:12:58.782Z,76.21
2019-03-19T22:15:27.204Z,77.36
2019-03-19T22:17:55.848Z,78.42
2019-03-19T22:20:24.428Z,78.87
2019-03-19T22:22:52.996Z,79.40
2019-03-19T22:25:21.405Z,80.06
2019-03-19T22:27:49.883Z,80.41
2019-03-19T22:30:22.053Z,80.74
2019-03-19T22:32:50.517Z,81.49
2019-03-19T22:35:18.922Z,81.90
2019-03-19T22:37:47.664Z,82.11
2019-03-19T22:40:16.794Z,82.06
2019-03-19T22:42:45.195Z,82.27
2019-03-19T22:45:15.601Z,82.34
2019-03-19T22:47:44.069Z,82.28
2019-03-19T22:50:14.980Z,81.50
2019-03-19T22:52:43.555Z,81.47
2019-03-19T22:55:13.563Z,81.71
2019-03-19T22:57:42.035Z,82.26
2019-03-19T23:00:31.567Z,82.69
2019-03-19T23:03:00.089Z,83.08
2019-03-19T23:05:28.694Z,82.95
2019-03-19T23:07:57.221Z,82.38
2019-03-19T23:10:25.722Z,81.91
2019-03-19T23:12:54.154Z,81.76
2019-03-19T23:15:22.781Z,81.96
2019-03-19T23:17:51.273Z,81.88
2019-03-19T23:20:19.805Z,81.64
2019-03-19T23:22:48.260Z,81.35
2019-03-19T23:25:16.815Z,81.28
2019-03-19T23:27:45.311Z,81.71
2019-03-19T23:30:21.237Z,81.89
2019-03-19T23:32:49.647Z,81.93
2019-03-19T23:35:18.114Z,82.05
2019-03-19T23:37:46.584Z,82.14
2019-03-19T23:40:16.433Z,81.79
2019-03-19T23:42:44.838Z,82.14
2019-03-19T23:45:14.036Z,82.49
2019-03-19T23:47:42.504Z,83.12
2019-03-19T23:50:12.962Z,83.28
2019-03-19T23:52:41.451Z,83.27
2019-03-19T23:55:10.661Z,83.34
2019-03-19T23:57:39.227Z,83.33
